Time;durP1;ratioP1;P1;durP2;ratioP2;P2;SDS_P1;SDS_P2;PMS_P1;PMS_P2;Temp;Humidity;BMP_temperature;BMP_pressure;BME280_temperature;BME280_humidity;BME280_pressure;Samples;Min_cycle;Max_cycle;Signal;HPM_P1;HPM_P2
2023/05/20 00:01:11;;;;;;;34.58;30.33;;;22.30;64.20;;;;;;4765735;55;21025;-36
2023/05/20 00:06:11;;;;;;;33.40;29.80;;;22.20;64.10;;;;;;4789435;55;21009;-36
2023/05/20 00:11:12;;;;;;;35.10;31.30;;;22.20;64.20;;;;;;4740342;54;21014;-34
2023/05/20 00:16:13;;;;;;;34.03;30.35;;;22.30;64.20;;;;;;4743187;55;21322;-35
2023/05/20 00:21:14;;;;;;;33.75;30.02;;;22.30;64.20;;;;;;4809128;55;21037;-36
2023/05/20 00:26:15;;;;;;;35.65;30.52;;;22.30;64.20;;;;;;4857303;55;21089;-37
2023/05/20 00:31:16;;;;;;;34.80;31.00;;;22.30;64.30;;;;;;4740469;59;21002;-36
2023/05/20 00:36:20;;;;;;;32.42;28.83;;;22.20;64.10;;;;;;4747782;55;21093;-36
2023/05/20 00:41:21;;;;;;;35.10;30.98;;;22.20;64.10;;;;;;4787494;55;21523;-39
2023/05/20 00:46:25;;;;;;;34.72;30.48;;;22.30;64.20;;;;;;4767016;55;21033;-36
2023/05/20 00:51:26;;;;;;;34.78;30.98;;;22.20;64.20;;;;;;4763512;55;21076;-37
2023/05/20 00:56:28;;;;;;;34.22;30.58;;;22.20;64.10;;;;;;4770258;55;21049;-37
2023/05/20 01:01:29;;;;;;;33.17;29.58;;;22.20;64.10;;;;;;4739637;56;21511;-37
2023/05/20 01:06:30;;;;;;;32.05;28.58;;;22.20;64.10;;;;;;4780959;55;20994;-35
2023/05/20 01:11:37;;;;;;;33.28;29.70;;;22.30;64.20;;;;;;4782767;55;21001;-35
2023/05/20 01:16:38;;;;;;;33.67;30.10;;;22.20;64.10;;;;;;4740099;59;21519;-37
2023/05/20 01:21:41;;;;;;;33.40;29.65;;;22.20;64.10;;;;;;4756895;55;21010;-35
2023/05/20 01:26:42;;;;;;;32.42;28.90;;;22.20;64.10;;;;;;4817035;55;21386;-35
2023/05/20 01:31:45;;;;;;;32.45;28.95;;;22.20;64.10;;;;;;4826781;55;21475;-36
2023/05/20 01:36:46;;;;;;;33.30;29.80;;;22.20;64.10;;;;;;4745238;55;21044;-38
2023/05/20 01:41:48;;;;;;;31.23;27.80;;;22.20;64.10;;;;;;4757099;55;21045;-37
2023/05/20 01:46:49;;;;;;;32.67;29.17;;;22.20;64.10;;;;;;4741239;55;21006;-37
2023/05/20 01:51:50;;;;;;;31.80;28.40;;;22.20;64.00;;;;;;4802093;55;21001;-36
2023/05/20 01:56:51;;;;;;;31.17;27.90;;;22.20;64.00;;;;;;4815371;55;21078;-35
2023/05/20 02:01:52;;;;;;;31.50;27.48;;;22.20;64.00;;;;;;4779206;55;21460;-35
2023/05/20 02:06:53;;;;;;;30.15;27.02;;;22.20;64.10;;;;;;4743552;55;21001;-36
2023/05/20 02:11:53;;;;;;;31.58;28.17;;;22.20;64.00;;;;;;4760769;55;21491;-36
2023/05/20 02:16:54;;;;;;;31.73;28.35;;;22.30;64.10;;;;;;4768403;55;20990;-36
2023/05/20 02:21:55;;;;;;;31.62;28.33;;;22.20;63.90;;;;;;4743937;55;21020;-36
2023/05/20 02:26:57;;;;;;;31.20;27.80;;;22.20;64.10;;;;;;4762333;55;21013;-36
2023/05/20 02:31:58;;;;;;;30.10;26.90;;;22.20;63.90;;;;;;4837151;55;21554;-35
2023/05/20 02:37:00;;;;;;;31.15;27.80;;;22.20;63.90;;;;;;4780035;55;21073;-36
2023/05/20 02:42:01;;;;;;;29.95;26.80;;;22.20;63.90;;;;;;4799356;55;21503;-36
2023/05/20 02:47:01;;;;;;;30.52;27.23;;;22.20;64.60;;;;;;4787300;55;21101;-37
2023/05/20 02:52:03;;;;;;;31.77;28.38;;;22.20;63.90;;;;;;4792768;55;21349;-36
2023/05/20 02:57:04;;;;;;;30.77;27.50;;;22.20;64.00;;;;;;4812954;55;21479;-38
2023/05/20 03:02:05;;;;;;;29.00;26.00;;;22.20;63.90;;;;;;4762416;55;21033;-35
2023/05/20 03:07:06;;;;;;;30.80;27.55;;;22.20;63.90;;;;;;4773656;55;21455;-35
2023/05/20 03:12:07;;;;;;;29.80;26.52;;;22.20;64.00;;;;;;4893149;55;21005;-36
2023/05/20 03:17:08;;;;;;;29.85;26.60;;;22.20;63.90;;;;;;4820108;55;21014;-37
2023/05/20 03:22:09;;;;;;;30.17;26.30;;;22.20;63.90;;;;;;4773243;55;21005;-33
2023/05/20 03:27:10;;;;;;;30.23;26.35;;;22.20;63.90;;;;;;4888497;55;21550;-38
2023/05/20 03:32:11;;;;;;;28.48;25.58;;;22.20;64.00;;;;;;4751341;55;21078;-37
2023/05/20 03:37:12;;;;;;;29.00;25.90;;;22.20;63.90;;;;;;4768105;54;21084;-33
2023/05/20 03:42:13;;;;;;;29.17;26.23;;;22.20;63.90;;;;;;4783132;55;21109;-38
2023/05/20 03:47:13;;;;;;;29.92;26.77;;;22.20;63.90;;;;;;4781362;55;21117;-35
2023/05/20 03:52:14;;;;;;;28.70;25.73;;;22.20;63.90;;;;;;4771839;55;21975;-35
2023/05/20 03:57:15;;;;;;;28.17;25.17;;;22.10;63.80;;;;;;4749683;55;21100;-36
2023/05/20 04:02:19;;;;;;;28.98;26.10;;;22.20;63.80;;;;;;4835837;55;21483;-37
2023/05/20 04:07:20;;;;;;;29.17;26.08;;;22.20;63.80;;;;;;4786600;55;21598;-36
2023/05/20 04:12:21;;;;;;;28.30;25.30;;;22.20;63.90;;;;;;4785049;55;21050;-34
2023/05/20 04:17:22;;;;;;;27.75;24.75;;;22.20;63.90;;;;;;4761130;55;21013;-34
2023/05/20 04:22:23;;;;;;;28.02;25.02;;;22.10;63.90;;;;;;4761832;55;21149;-34
2023/05/20 04:27:24;;;;;;;27.20;24.45;;;22.10;63.80;;;;;;4809525;55;21590;-36
2023/05/20 04:32:25;;;;;;;28.20;25.20;;;22.10;63.80;;;;;;4740300;59;21086;-36
2023/05/20 04:37:27;;;;;;;27.77;24.83;;;22.10;63.80;;;;;;4740591;59;21702;-35
2023/05/20 04:42:28;;;;;;;27.65;24.75;;;22.10;63.70;;;;;;4762603;55;21109;-36
2023/05/20 04:47:30;;;;;;;27.13;24.27;;;22.10;63.80;;;;;;4740212;59;21492;-35
2023/05/20 04:52:31;;;;;;;27.98;25.08;;;22.10;63.70;;;;;;4748268;55;21402;-36
2023/05/20 04:57:33;;;;;;;26.52;23.73;;;22.10;63.70;;;;;;4780839;55;21949;-37
2023/05/20 05:02:35;;;;;;;27.17;24.27;;;22.10;63.80;;;;;;4769020;55;21519;-36
2023/05/20 05:07:35;;;;;;;27.55;24.55;;;22.10;63.70;;;;;;4770695;55;21025;-37
2023/05/20 05:12:36;;;;;;;27.20;24.37;;;22.10;63.60;;;;;;4756822;55;21089;-33
2023/05/20 05:17:37;;;;;;;26.65;24.05;;;22.10;63.80;;;;;;4743168;55;21029;-37
2023/05/20 05:22:40;;;;;;;25.95;23.15;;;22.10;63.70;;;;;;4810263;55;21030;-35
2023/05/20 05:27:41;;;;;;;25.90;23.27;;;22.10;63.60;;;;;;4749875;55;21468;-33
2023/05/20 05:32:41;;;;;;;26.12;23.40;;;22.10;63.60;;;;;;4769244;55;20986;-35
2023/05/20 05:37:42;;;;;;;25.45;22.87;;;22.10;63.70;;;;;;4755867;54;21072;-37
2023/05/20 05:42:43;;;;;;;24.73;22.17;;;22.10;63.60;;;;;;4881270;55;21049;-36
2023/05/20 05:47:44;;;;;;;25.92;23.25;;;22.10;63.70;;;;;;4776918;55;21017;-36
2023/05/20 05:52:45;;;;;;;25.50;23.00;;;22.10;63.60;;;;;;4804545;55;21487;-35
2023/05/20 05:57:46;;;;;;;25.17;22.58;;;22.10;63.60;;;;;;4797007;55;21116;-35
2023/05/20 06:02:47;;;;;;;26.30;23.50;;;22.10;63.50;;;;;;4768111;55;21490;-35
2023/05/20 06:07:48;;;;;;;25.48;22.87;;;22.10;63.50;;;;;;4756143;54;21022;-35
2023/05/20 06:12:48;;;;;;;26.17;23.38;;;22.10;63.50;;;;;;4796617;55;21041;-34
2023/05/20 06:17:49;;;;;;;25.23;22.62;;;22.10;63.40;;;;;;4756479;55;21324;-34
2023/05/20 06:22:50;;;;;;;26.55;23.85;;;22.10;64.10;;;;;;4748409;55;21948;-37
2023/05/20 06:27:51;;;;;;;27.37;24.42;;;22.10;63.50;;;;;;4757770;55;21390;-34
2023/05/20 06:32:52;;;;;;;25.85;23.10;;;22.10;63.50;;;;;;4740419;59;21398;-36
2023/05/20 06:37:54;;;;;;;26.02;23.23;;;22.10;63.40;;;;;;4740897;54;21001;-36
2023/05/20 06:42:54;;;;;;;25.33;22.73;;;22.10;63.40;;;;;;4766766;55;21829;-35
2023/05/20 06:47:55;;;;;;;25.17;22.50;;;22.10;63.50;;;;;;4834157;55;21517;-37
2023/05/20 06:52:56;;;;;;;25.62;22.70;;;22.10;63.40;;;;;;4810631;55;21934;-36
2023/05/20 06:57:57;;;;;;;26.92;23.77;;;22.10;63.40;;;;;;4790120;55;21032;-35
2023/05/20 07:02:58;;;;;;;26.10;23.30;;;22.10;63.40;;;;;;4801694;55;21101;-34
2023/05/20 07:07:59;;;;;;;28.67;24.10;;;22.10;63.30;;;;;;4740863;59;21006;-35
2023/05/20 07:13:00;;;;;;;27.30;24.42;;;22.10;63.30;;;;;;4755364;55;21061;-35
2023/05/20 07:18:00;;;;;;;26.08;23.30;;;22.10;63.40;;;;;;4761470;55;21433;-36
2023/05/20 07:23:02;;;;;;;26.40;23.17;;;22.10;63.40;;;;;;4785226;55;21010;-36
2023/05/20 07:28:04;;;;;;;27.55;24.60;;;22.10;63.40;;;;;;4843860;55;21463;-46
2023/05/20 07:33:05;;;;;;;27.40;24.50;;;22.10;63.40;;;;;;4792193;55;22141;-35
2023/05/20 07:38:06;;;;;;;29.33;25.73;;;22.10;63.40;;;;;;4844954;55;22020;-36
2023/05/20 07:43:08;;;;;;;27.48;24.52;;;22.10;63.40;;;;;;4826083;54;21549;-34
2023/05/20 07:48:09;;;;;;;29.48;25.15;;;22.10;63.40;;;;;;4781478;55;21037;-35
2023/05/20 07:53:10;;;;;;;28.27;25.27;;;22.10;63.50;;;;;;4770100;55;21490;-37
2023/05/20 07:58:11;;;;;;;29.48;26.17;;;22.10;63.40;;;;;;4740262;59;21443;-37
2023/05/20 08:03:13;;;;;;;31.70;26.37;;;22.10;63.50;;;;;;4758899;55;21033;-35
2023/05/20 08:08:15;;;;;;;28.02;24.95;;;22.10;63.50;;;;;;4769605;55;21037;-37
2023/05/20 08:13:15;;;;;;;31.23;27.17;;;22.10;63.50;;;;;;4762814;55;21578;-37
2023/05/20 08:18:16;;;;;;;30.67;25.45;;;22.10;63.50;;;;;;4839285;55;21350;-35
2023/05/20 08:23:17;;;;;;;28.42;25.40;;;22.10;63.50;;;;;;4763338;55;21097;-35
2023/05/20 08:28:18;;;;;;;32.35;28.33;;;22.10;63.50;;;;;;4778893;54;21024;-37
2023/05/20 08:33:20;;;;;;;31.00;26.33;;;22.10;63.60;;;;;;4739628;55;21029;-36
2023/05/20 08:38:21;;;;;;;31.33;26.23;;;22.10;63.60;;;;;;4740445;59;21530;-35
2023/05/20 08:43:26;;;;;;;30.27;26.48;;;22.10;63.60;;;;;;4741444;55;21503;-37
2023/05/20 08:48:28;;;;;;;31.60;27.27;;;22.10;63.60;;;;;;4878036;55;21081;-36
2023/05/20 08:53:29;;;;;;;31.23;26.60;;;22.10;63.60;;;;;;4755120;55;21476;-36
2023/05/20 08:58:33;;;;;;;31.90;28.10;;;22.10;63.60;;;;;;4796983;55;21120;-35
2023/05/20 09:03:34;;;;;;;29.58;26.37;;;22.10;63.60;;;;;;4771732;55;21114;-35
2023/05/20 09:08:36;;;;;;;29.15;25.37;;;22.10;63.70;;;;;;4739952;59;21121;-38
2023/05/20 09:13:36;;;;;;;32.38;26.23;;;22.10;63.70;;;;;;4739771;59;21057;-36
2023/05/20 09:18:39;;;;;;;31.50;26.98;;;22.10;63.80;;;;;;4751207;55;21065;-33
2023/05/20 09:23:45;;;;;;;29.55;26.35;;;22.10;63.70;;;;;;4776745;55;21018;-34
2023/05/20 09:28:46;;;;;;;29.30;25.65;;;22.20;63.80;;;;;;4850583;55;21319;-35
2023/05/20 09:33:48;;;;;;;32.15;27.35;;;22.20;63.80;;;;;;5008002;55;21410;-34
2023/05/20 09:38:53;;;;;;;29.75;26.55;;;22.20;63.80;;;;;;4767866;55;21547;-36
2023/05/20 09:43:54;;;;;;;28.33;25.15;;;22.20;63.80;;;;;;4802895;55;21028;-35
2023/05/20 09:48:56;;;;;;;29.00;25.90;;;22.20;63.70;;;;;;4792158;55;21410;-36
2023/05/20 09:53:57;;;;;;;30.12;26.92;;;22.20;63.70;;;;;;4824522;55;21069;-36
2023/05/20 09:59:00;;;;;;;30.35;26.10;;;22.30;63.40;;;;;;4768455;55;21002;-33
2023/05/20 10:04:04;;;;;;;29.87;26.50;;;22.30;63.30;;;;;;4742514;55;21479;-36
2023/05/20 10:09:58;;;;;;;29.70;26.45;;;22.30;63.20;;;;;;4740227;59;21310;-36
2023/05/20 10:15:32;;;;;;;29.23;26.00;;;22.30;63.30;;;;;;4847120;55;21001;-35
2023/05/20 10:20:47;;;;;;;28.27;25.27;;;22.30;63.80;;;;;;4740230;59;21488;-39
2023/05/20 10:25:55;;;;;;;28.98;25.67;;;22.30;63.20;;;;;;4740083;59;21491;-35
2023/05/20 10:30:57;;;;;;;28.95;25.73;;;22.30;63.70;;;;;;4804650;55;21567;-36
2023/05/20 10:35:59;;;;;;;28.85;25.75;;;22.30;63.20;;;;;;4768597;55;21543;-35
2023/05/20 10:41:12;;;;;;;29.15;26.12;;;22.30;63.20;;;;;;4764018;55;21547;-35
2023/05/20 10:46:18;;;;;;;29.10;26.00;;;22.40;63.30;;;;;;4843942;55;21089;-36
2023/05/20 10:51:20;;;;;;;28.58;25.48;;;22.40;63.20;;;;;;4812019;55;21495;-36
2023/05/20 10:56:25;;;;;;;29.73;26.40;;;22.40;63.40;;;;;;4781869;55;21622;-36
2023/05/20 11:01:26;;;;;;;29.52;26.33;;;22.40;63.30;;;;;;4813106;55;21021;-37
2023/05/20 11:06:28;;;;;;;28.75;25.55;;;22.30;63.20;;;;;;4787815;55;21085;-34
2023/05/20 11:11:29;;;;;;;29.33;26.23;;;22.40;63.30;;;;;;4779960;55;21507;-35
2023/05/20 11:16:30;;;;;;;29.52;26.45;;;22.30;63.30;;;;;;4796020;55;21053;-36
2023/05/20 11:21:31;;;;;;;29.35;26.25;;;22.30;63.30;;;;;;4740121;55;21511;-37
2023/05/20 11:26:32;;;;;;;30.25;26.50;;;22.30;63.20;;;;;;4740826;55;21487;-35
2023/05/20 11:31:33;;;;;;;28.77;25.65;;;22.30;63.30;;;;;;4753959;55;21001;-35
2023/05/20 11:36:34;;;;;;;28.95;25.88;;;22.40;63.20;;;;;;4768960;55;21100;-36
2023/05/20 11:41:34;;;;;;;29.05;25.95;;;22.30;63.20;;;;;;4753179;55;21109;-35
2023/05/20 11:46:41;;;;;;;28.12;25.10;;;22.40;63.10;;;;;;4740161;59;21073;-34
2023/05/20 11:51:44;;;;;;;28.83;25.83;;;22.40;63.10;;;;;;4794035;55;21061;-36
2023/05/20 11:56:45;;;;;;;29.37;26.27;;;22.40;63.10;;;;;;4742446;55;21061;-36
2023/05/20 12:01:46;;;;;;;29.33;26.23;;;22.40;63.20;;;;;;4902235;55;21017;-35
2023/05/20 12:06:47;;;;;;;28.08;25.20;;;22.40;63.20;;;;;;4771670;55;21017;-36
2023/05/20 12:11:48;;;;;;;28.92;25.67;;;22.40;63.20;;;;;;4748067;55;20998;-35
2023/05/20 12:16:48;;;;;;;29.15;26.15;;;22.40;63.10;;;;;;4949590;55;21021;-36
2023/05/20 12:21:51;;;;;;;29.90;26.70;;;22.40;63.00;;;;;;4824219;55;21459;-40
2023/05/20 12:26:52;;;;;;;28.73;25.62;;;22.50;63.00;;;;;;4762542;55;21516;-35
2023/05/20 12:31:53;;;;;;;27.92;25.02;;;22.50;63.00;;;;;;4746671;55;21125;-37
2023/05/20 12:36:54;;;;;;;29.83;26.67;;;22.50;63.00;;;;;;4774658;55;21547;-35
2023/05/20 12:41:54;;;;;;;29.37;26.27;;;22.50;63.10;;;;;;4839021;55;21137;-38
2023/05/20 12:46:55;;;;;;;29.12;25.88;;;22.50;63.10;;;;;;4783684;54;21085;-36
2023/05/20 12:51:56;;;;;;;29.25;26.15;;;22.50;63.00;;;;;;4740301;59;21061;-37
2023/05/20 12:56:57;;;;;;;28.55;25.58;;;22.40;63.20;;;;;;4755710;55;21009;-36
2023/05/20 13:01:58;;;;;;;29.10;25.90;;;22.50;63.20;;;;;;4802070;55;21555;-35
2023/05/20 13:06:59;;;;;;;28.17;25.15;;;22.40;63.20;;;;;;4739941;59;21017;-36
2023/05/20 13:12:00;;;;;;;30.37;27.27;;;22.40;63.10;;;;;;4739708;59;21013;-35
2023/05/20 13:17:01;;;;;;;29.05;26.05;;;22.50;63.10;;;;;;4740234;59;21538;-38
2023/05/20 13:22:03;;;;;;;30.35;26.98;;;22.50;63.10;;;;;;4778424;55;21014;-36
2023/05/20 13:27:04;;;;;;;29.67;26.52;;;22.50;63.20;;;;;;4750247;55;21010;-36
2023/05/20 13:32:05;;;;;;;29.58;26.58;;;22.50;63.20;;;;;;4739804;59;21081;-34
2023/05/20 13:37:06;;;;;;;28.00;25.08;;;22.50;63.10;;;;;;4805215;55;21451;-36
2023/05/20 13:42:07;;;;;;;29.48;26.35;;;22.50;63.20;;;;;;4739161;59;21081;-36
2023/05/20 13:47:08;;;;;;;29.33;26.20;;;22.40;63.40;;;;;;4748226;55;20998;-38
2023/05/20 13:52:09;;;;;;;28.30;25.45;;;22.40;63.30;;;;;;4748087;55;21088;-30
2023/05/20 13:57:10;;;;;;;29.00;25.95;;;22.50;63.10;;;;;;4739751;55;21053;-36
2023/05/20 14:02:11;;;;;;;28.67;25.67;;;22.50;63.10;;;;;;4877895;55;21472;-35
2023/05/20 14:07:12;;;;;;;27.98;25.15;;;22.40;63.30;;;;;;4739756;59;20981;-37
2023/05/20 14:12:13;;;;;;;28.55;25.58;;;22.40;63.40;;;;;;4739828;59;21031;-36
2023/05/20 14:17:14;;;;;;;29.37;26.17;;;22.50;63.20;;;;;;4828384;55;21061;-36
2023/05/20 14:22:14;;;;;;;29.20;26.20;;;22.50;63.20;;;;;;5000967;55;21069;-37
2023/05/20 14:27:15;;;;;;;28.40;25.33;;;22.50;63.30;;;;;;4780722;55;21026;-36
2023/05/20 14:32:16;;;;;;;28.05;25.15;;;22.50;63.20;;;;;;4882860;55;21574;-35
2023/05/20 14:37:17;;;;;;;30.15;27.05;;;22.50;63.10;;;;;;4859763;55;21097;-36
2023/05/20 14:42:18;;;;;;;27.70;24.87;;;22.50;63.10;;;;;;4792880;55;21188;-36
2023/05/20 14:47:20;;;;;;;27.77;24.87;;;22.50;63.10;;;;;;4833198;55;21078;-35
2023/05/20 14:52:22;;;;;;;26.73;23.90;;;22.50;63.10;;;;;;4786626;55;22508;-36
2023/05/20 14:57:23;;;;;;;29.45;26.35;;;22.50;63.20;;;;;;4989629;55;21006;-33
2023/05/20 15:02:23;;;;;;;26.80;24.05;;;22.50;63.30;;;;;;4753160;55;21484;-36
2023/05/20 15:07:25;;;;;;;28.17;25.20;;;22.50;63.20;;;;;;4956695;55;21151;-35
2023/05/20 15:12:26;;;;;;;27.73;24.92;;;22.50;63.20;;;;;;4747220;55;21133;-35
2023/05/20 15:17:27;;;;;;;26.73;23.92;;;22.50;63.30;;;;;;4774577;55;21081;-35
2023/05/20 15:22:28;;;;;;;27.02;24.12;;;22.50;63.30;;;;;;4739458;59;21576;-35
2023/05/20 15:27:28;;;;;;;27.13;24.23;;;22.50;63.20;;;;;;4775083;55;21076;-35
2023/05/20 15:32:29;;;;;;;27.73;24.92;;;22.50;63.20;;;;;;4739999;55;21073;-35
2023/05/20 15:37:30;;;;;;;27.98;25.10;;;22.50;63.40;;;;;;4878483;54;21073;-35
2023/05/20 15:42:31;;;;;;;25.85;23.12;;;22.50;63.20;;;;;;4773326;55;21554;-36
2023/05/20 15:47:32;;;;;;;27.55;24.75;;;22.50;63.50;;;;;;4748614;55;21009;-36
2023/05/20 15:52:33;;;;;;;25.88;23.17;;;22.50;63.40;;;;;;4902255;55;21013;-35
2023/05/20 15:57:34;;;;;;;26.50;23.70;;;22.50;63.30;;;;;;4792616;54;21009;-35
2023/05/20 16:02:35;;;;;;;25.02;22.30;;;22.40;63.40;;;;;;4819597;55;21013;-36
2023/05/20 16:07:37;;;;;;;27.73;24.83;;;22.40;63.50;;;;;;4751702;55;21026;-35
2023/05/20 16:12:38;;;;;;;27.37;24.45;;;22.40;63.70;;;;;;4832854;55;21125;-36
2023/05/20 16:17:39;;;;;;;29.60;26.02;;;22.40;63.70;;;;;;4837297;54;21057;-36
2023/05/20 16:22:40;;;;;;;26.67;23.83;;;22.40;63.70;;;;;;4775123;55;21078;-36
2023/05/20 16:27:41;;;;;;;28.52;24.83;;;22.40;63.70;;;;;;4827181;55;21077;-35
2023/05/20 16:32:41;;;;;;;29.17;25.98;;;22.40;63.70;;;;;;4778737;55;20997;-36
2023/05/20 16:37:43;;;;;;;26.52;23.42;;;22.40;63.80;;;;;;4851116;55;21045;-35
2023/05/20 16:42:44;;;;;;;26.80;23.90;;;22.40;63.70;;;;;;4871445;55;21085;-35
2023/05/20 16:47:45;;;;;;;28.80;25.58;;;22.40;63.70;;;;;;4871840;55;22125;-34
2023/05/20 16:52:45;;;;;;;28.90;25.80;;;22.40;63.80;;;;;;4739585;59;21342;-37
2023/05/20 16:57:47;;;;;;;27.70;24.30;;;22.40;63.80;;;;;;4740157;59;21472;-35
2023/05/20 17:02:47;;;;;;;27.87;24.98;;;22.40;64.10;;;;;;4846250;55;21005;-33
2023/05/20 17:07:49;;;;;;;26.98;24.08;;;22.40;63.80;;;;;;4739818;59;21049;-36
2023/05/20 17:12:50;;;;;;;26.60;23.38;;;22.40;63.80;;;;;;4740846;55;21479;-36
2023/05/20 17:17:54;;;;;;;27.33;24.40;;;22.40;63.80;;;;;;4917659;55;21018;-37
2023/05/20 17:22:55;;;;;;;26.05;23.25;;;22.40;63.80;;;;;;4819741;55;21018;-34
2023/05/20 17:27:56;;;;;;;27.33;23.52;;;22.40;63.80;;;;;;4798497;55;21472;-37
2023/05/20 17:32:56;;;;;;;27.83;24.83;;;22.40;63.80;;;;;;4919555;54;21069;-37
2023/05/20 17:37:57;;;;;;;25.35;22.62;;;22.40;63.80;;;;;;4800276;55;20993;-36
2023/05/20 17:42:58;;;;;;;27.35;24.33;;;22.40;63.80;;;;;;4898111;54;21061;-35
2023/05/20 17:47:59;;;;;;;27.42;24.52;;;22.40;63.80;;;;;;4740130;59;21018;-36
2023/05/20 17:53:00;;;;;;;26.77;23.98;;;22.40;63.80;;;;;;4740310;59;21559;-34
2023/05/20 17:58:02;;;;;;;28.85;24.52;;;22.40;63.80;;;;;;4754525;55;21029;-35
2023/05/20 18:03:04;;;;;;;27.80;24.70;;;22.40;63.80;;;;;;4805595;55;21053;-35
2023/05/20 18:08:05;;;;;;;26.42;23.62;;;22.40;63.80;;;;;;4757638;55;21825;-31
2023/05/20 18:13:06;;;;;;;27.05;24.15;;;22.40;63.80;;;;;;4745546;55;21041;-37
2023/05/20 18:18:07;;;;;;;25.88;23.12;;;22.40;63.80;;;;;;4796306;55;21093;-34
2023/05/20 18:23:07;;;;;;;25.37;22.60;;;22.40;63.80;;;;;;4843586;55;21141;-39
2023/05/20 18:28:09;;;;;;;27.23;24.33;;;22.40;63.80;;;;;;4876905;54;21018;-37
2023/05/20 18:33:10;;;;;;;26.65;23.75;;;22.40;63.70;;;;;;4804054;55;21463;-34
2023/05/20 18:38:11;;;;;;;27.05;24.12;;;22.40;63.70;;;;;;4869218;55;20994;-38
2023/05/20 18:43:12;;;;;;;26.50;23.67;;;22.40;63.70;;;;;;4796657;54;21048;-36
2023/05/20 18:48:13;;;;;;;25.85;23.05;;;22.40;63.80;;;;;;4797277;54;21476;-34
2023/05/20 18:53:17;;;;;;;26.12;23.25;;;22.40;64.40;;;;;;4869661;55;21437;-34
2023/05/20 18:58:18;;;;;;;27.23;23.45;;;22.40;63.80;;;;;;4851921;55;21459;-34
2023/05/20 19:03:19;;;;;;;26.65;23.67;;;22.40;63.80;;;;;;4826051;55;21102;-36
2023/05/20 19:08:21;;;;;;;26.87;23.75;;;22.40;63.70;;;;;;4740833;55;21094;-38
2023/05/20 19:13:23;;;;;;;27.58;24.58;;;22.40;63.80;;;;;;4852713;55;21041;-36
2023/05/20 19:18:24;;;;;;;25.90;22.87;;;22.40;63.70;;;;;;4740563;59;21492;-35
2023/05/20 19:23:25;;;;;;;24.83;22.17;;;22.40;63.70;;;;;;4766628;55;21033;-37
2023/05/20 19:28:27;;;;;;;28.83;24.58;;;22.40;63.60;;;;;;4869134;55;21635;-36
2023/05/20 19:33:28;;;;;;;26.92;24.02;;;22.40;63.70;;;;;;4765961;55;21077;-34
2023/05/20 19:38:29;;;;;;;27.33;24.23;;;22.40;63.60;;;;;;4739101;59;21050;-31
2023/05/20 19:43:29;;;;;;;27.85;24.77;;;22.40;63.50;;;;;;4771448;54;21061;-34
2023/05/20 19:48:31;;;;;;;25.83;23.05;;;22.40;63.50;;;;;;4744372;54;21037;-31
2023/05/20 19:53:31;;;;;;;26.10;23.30;;;22.40;63.60;;;;;;4792443;55;21013;-35
2023/05/20 19:58:32;;;;;;;24.80;22.20;;;22.40;63.50;;;;;;4888893;55;21046;-37
2023/05/20 20:03:36;;;;;;;24.85;22.33;;;22.40;63.50;;;;;;4752136;55;21476;-38
2023/05/20 20:08:38;;;;;;;23.27;20.73;;;22.40;63.50;;;;;;4791975;55;21021;-36
2023/05/20 20:13:39;;;;;;;23.75;21.23;;;22.40;63.60;;;;;;4772820;55;21550;-36
2023/05/20 20:18:40;;;;;;;24.30;21.70;;;22.40;63.50;;;;;;4785613;55;21512;-34
2023/05/20 20:23:41;;;;;;;25.50;22.27;;;22.40;63.50;;;;;;4782964;55;21022;-36
2023/05/20 20:28:41;;;;;;;24.85;21.40;;;22.40;63.40;;;;;;4807894;55;22722;-34
2023/05/20 20:33:43;;;;;;;25.65;22.80;;;22.40;63.40;;;;;;4912983;55;21029;-35
2023/05/20 20:38:45;;;;;;;24.95;22.05;;;22.40;63.40;;;;;;4844035;55;21572;-37
2023/05/20 20:43:46;;;;;;;25.48;22.75;;;22.40;63.40;;;;;;4757122;55;21471;-34
2023/05/20 20:48:47;;;;;;;24.67;22.10;;;22.50;63.00;;;;;;4862926;55;21042;-35
2023/05/20 20:53:48;;;;;;;25.02;22.42;;;22.60;62.90;;;;;;4741665;55;21502;-34
2023/05/20 20:58:52;;;;;;;25.10;22.50;;;22.60;62.80;;;;;;4998968;55;20998;-34
2023/05/20 21:03:53;;;;;;;23.00;20.67;;;22.60;62.80;;;;;;4829818;55;21634;-36
2023/05/20 21:08:56;;;;;;;23.67;21.20;;;22.60;62.80;;;;;;4745166;55;21056;-35
2023/05/20 21:13:57;;;;;;;23.95;21.45;;;22.60;62.80;;;;;;4805107;55;21540;-37
2023/05/20 21:18:58;;;;;;;24.83;22.23;;;22.60;62.80;;;;;;4740081;55;21006;-35
2023/05/20 21:23:59;;;;;;;24.87;21.92;;;22.60;63.50;;;;;;4804357;54;21515;-36
2023/05/20 21:29:00;;;;;;;24.42;21.83;;;22.60;62.80;;;;;;4754333;55;21472;-32
2023/05/20 21:34:01;;;;;;;24.05;21.55;;;22.60;62.80;;;;;;4755995;55;21061;-37
2023/05/20 21:39:01;;;;;;;23.85;21.35;;;22.50;62.80;;;;;;4799734;55;21125;-34
2023/05/20 21:44:03;;;;;;;24.40;21.90;;;22.60;62.80;;;;;;4812278;55;21101;-35
2023/05/20 21:49:04;;;;;;;24.17;21.77;;;22.50;62.80;;;;;;4902980;55;20990;-38
2023/05/20 21:54:04;;;;;;;22.73;20.42;;;22.60;62.90;;;;;;5003615;55;21570;-36
2023/05/20 21:59:05;;;;;;;22.98;20.62;;;22.50;63.00;;;;;;4773884;54;21089;-35
2023/05/20 22:04:06;;;;;;;23.60;21.20;;;22.60;62.80;;;;;;4739276;59;21041;-39
2023/05/20 22:09:07;;;;;;;23.33;20.90;;;22.50;62.80;;;;;;4798677;55;21005;-36
2023/05/20 22:14:08;;;;;;;23.02;20.62;;;22.60;62.80;;;;;;4739786;56;21017;-33
2023/05/20 22:19:09;;;;;;;23.42;20.98;;;22.50;62.80;;;;;;4838061;54;21532;-34
2023/05/20 22:24:10;;;;;;;23.98;21.45;;;22.50;62.90;;;;;;4739036;59;21049;-36
2023/05/20 22:29:11;;;;;;;22.33;20.10;;;22.40;63.20;;;;;;4790785;55;21457;-37
2023/05/20 22:34:12;;;;;;;22.25;20.00;;;22.50;63.10;;;;;;5026837;55;21598;-37
2023/05/20 22:39:12;;;;;;;22.42;20.15;;;22.50;62.90;;;;;;4793833;55;21069;-36
2023/05/20 22:44:13;;;;;;;22.92;20.50;;;22.60;62.90;;;;;;4738697;59;21041;-37
2023/05/20 22:49:17;;;;;;;22.45;20.15;;;22.60;63.00;;;;;;4740106;56;21466;-37
2023/05/20 22:54:18;;;;;;;22.67;20.35;;;22.50;63.00;;;;;;4757541;55;21041;-36
2023/05/20 22:59:20;;;;;;;22.17;19.87;;;22.60;62.90;;;;;;4854057;55;21001;-36
2023/05/20 23:04:20;;;;;;;21.17;18.98;;;22.60;62.90;;;;;;4838966;55;21024;-38
2023/05/20 23:09:21;;;;;;;20.67;18.58;;;22.60;62.90;;;;;;4746031;55;21009;-36
2023/05/20 23:14:22;;;;;;;20.62;18.52;;;22.50;63.20;;;;;;4740340;59;21550;-36
2023/05/20 23:19:23;;;;;;;20.48;18.37;;;22.50;63.20;;;;;;4793740;55;21009;-35
2023/05/20 23:24:24;;;;;;;21.15;19.05;;;22.40;63.40;;;;;;4858947;54;21013;-39
2023/05/20 23:29:25;;;;;;;20.92;18.73;;;22.40;63.30;;;;;;4766612;55;21093;-36
2023/05/20 23:34:29;;;;;;;20.62;18.52;;;22.50;63.30;;;;;;4816481;55;21527;-36
2023/05/20 23:39:30;;;;;;;20.50;18.42;;;22.50;63.20;;;;;;4739763;59;22188;-37
2023/05/20 23:44:30;;;;;;;20.00;17.90;;;22.50;63.30;;;;;;4752931;55;21073;-36
2023/05/20 23:49:31;;;;;;;19.33;17.37;;;22.40;63.30;;;;;;4790302;55;21021;-38
2023/05/20 23:54:33;;;;;;;19.73;17.73;;;22.40;63.50;;;;;;4875987;55;21551;-35
2023/05/20 23:59:33;;;;;;;20.42;18.40;;;22.40;63.50;;;;;;4867541;55;21447;-37
